sensor_id;sensor_type;location;lat;lon;timestamp;P1;durP1;ratioP1;P2;durP2;ratioP2
45392;SDS011;31129;44.810;10.334;2023-04-03T05:03:46;8.30;;;4.17;;
45392;SDS011;31129;44.810;10.334;2023-04-03T05:06:13;3.50;;;3.20;;
45392;SDS011;31129;44.810;10.334;2023-04-03T05:08:38;9.73;;;3.28;;
45392;SDS011;31129;44.810;10.334;2023-04-03T05:11:05;6.65;;;3.78;;
45392;SDS011;31129;44.810;10.334;2023-04-03T05:13:32;5.93;;;3.70;;
45392;SDS011;31129;44.810;10.334;2023-04-03T05:15:57;9.52;;;3.70;;
45392;SDS011;31129;44.810;10.334;2023-04-03T05:18:23;6.47;;;3.35;;
45392;SDS011;31129;44.810;10.334;2023-04-03T05:20:50;9.48;;;3.80;;
45392;SDS011;31129;44.810;10.334;2023-04-03T05:23:17;7.45;;;3.92;;
45392;SDS011;31129;44.810;10.334;2023-04-03T05:25:43;6.88;;;4.72;;
45392;SDS011;31129;44.810;10.334;2023-04-03T05:28:10;7.65;;;4.10;;
45392;SDS011;31129;44.810;10.334;2023-04-03T05:30:36;8.32;;;4.07;;
45392;SDS011;31129;44.810;10.334;2023-04-03T05:33:03;6.90;;;4.13;;
45392;SDS011;31129;44.810;10.334;2023-04-03T05:35:38;4.22;;;3.80;;
45392;SDS011;31129;44.810;10.334;2023-04-03T05:38:06;18.00;;;4.15;;
45392;SDS011;31129;44.810;10.334;2023-04-03T05:40:32;7.97;;;4.47;;
45392;SDS011;31129;44.810;10.334;2023-04-03T05:42:57;13.30;;;3.78;;
45392;SDS011;31129;44.810;10.334;2023-04-03T05:45:25;6.30;;;4.03;;
45392;SDS011;31129;44.810;10.334;2023-04-03T05:47:51;7.93;;;4.10;;
45392;SDS011;31129;44.810;10.334;2023-04-03T05:50:16;8.68;;;3.97;;
45392;SDS011;31129;44.810;10.334;2023-04-03T05:52:43;6.97;;;4.00;;
45392;SDS011;31129;44.810;10.334;2023-04-03T05:55:12;11.02;;;3.70;;
45392;SDS011;31129;44.810;10.334;2023-04-03T05:57:38;7.68;;;4.32;;
45392;SDS011;31129;44.810;10.334;2023-04-03T06:00:04;6.25;;;4.10;;
45392;SDS011;31129;44.810;10.334;2023-04-03T06:02:42;13.68;;;3.95;;
45392;SDS011;31129;44.810;10.334;2023-04-03T06:05:12;14.60;;;4.13;;
45392;SDS011;31129;44.810;10.334;2023-04-03T06:07:40;14.27;;;4.53;;
45392;SDS011;31129;44.810;10.334;2023-04-03T06:10:06;12.65;;;4.30;;
45392;SDS011;31129;44.810;10.334;2023-04-03T06:12:32;9.68;;;4.63;;
45392;SDS011;31129;44.810;10.334;2023-04-03T06:14:57;14.10;;;4.30;;
45392;SDS011;31129;44.810;10.334;2023-04-03T06:17:23;11.27;;;4.55;;
45392;SDS011;31129;44.810;10.334;2023-04-03T06:19:48;13.30;;;4.88;;
45392;SDS011;31129;44.810;10.334;2023-04-03T06:22:14;10.50;;;4.97;;
45392;SDS011;31129;44.810;10.334;2023-04-03T06:24:40;9.82;;;4.55;;
45392;SDS011;31129;44.810;10.334;2023-04-03T06:27:06;6.72;;;4.63;;
45392;SDS011;31129;44.810;10.334;2023-04-03T06:29:32;10.38;;;4.63;;
45392;SDS011;31129;44.810;10.334;2023-04-03T06:31:57;12.18;;;5.05;;
45392;SDS011;31129;44.810;10.334;2023-04-03T06:34:26;13.57;;;5.18;;
45392;SDS011;31129;44.810;10.334;2023-04-03T06:36:51;11.82;;;5.20;;
45392;SDS011;31129;44.810;10.334;2023-04-03T06:39:18;13.65;;;5.38;;
45392;SDS011;31129;44.810;10.334;2023-04-03T06:41:46;9.90;;;5.15;;
45392;SDS011;31129;44.810;10.334;2023-04-03T06:44:11;8.95;;;5.20;;
45392;SDS011;31129;44.810;10.334;2023-04-03T06:46:38;7.35;;;5.10;;
45392;SDS011;31129;44.810;10.334;2023-04-03T06:49:04;12.32;;;5.68;;
45392;SDS011;31129;44.810;10.334;2023-04-03T06:51:32;10.80;;;5.70;;
45392;SDS011;31129;44.810;10.334;2023-04-03T06:53:58;11.55;;;5.88;;
45392;SDS011;31129;44.810;10.334;2023-04-03T06:56:24;19.85;;;6.00;;
45392;SDS011;31129;44.810;10.334;2023-04-03T06:58:52;12.20;;;7.78;;
45392;SDS011;31129;44.810;10.334;2023-04-03T07:01:20;11.02;;;6.32;;
45392;SDS011;31129;44.810;10.334;2023-04-03T07:03:46;21.42;;;6.80;;
45392;SDS011;31129;44.810;10.334;2023-04-03T07:06:14;14.43;;;7.40;;
45392;SDS011;31129;44.810;10.334;2023-04-03T07:08:40;13.40;;;8.23;;
45392;SDS011;31129;44.810;10.334;2023-04-03T07:11:07;11.68;;;8.70;;
45392;SDS011;31129;44.810;10.334;2023-04-03T07:13:33;14.38;;;9.25;;
45392;SDS011;31129;44.810;10.334;2023-04-03T07:15:59;17.63;;;8.75;;
45392;SDS011;31129;44.810;10.334;2023-04-03T07:18:25;13.38;;;8.50;;
45392;SDS011;31129;44.810;10.334;2023-04-03T07:20:51;10.85;;;8.45;;
45392;SDS011;31129;44.810;10.334;2023-04-03T07:23:17;13.13;;;9.27;;
45392;SDS011;31129;44.810;10.334;2023-04-03T07:25:43;15.70;;;9.93;;
45392;SDS011;31129;44.810;10.334;2023-04-03T07:28:13;14.07;;;9.80;;
45392;SDS011;31129;44.810;10.334;2023-04-03T07:31:01;16.27;;;9.57;;
45392;SDS011;31129;44.810;10.334;2023-04-03T07:33:29;14.00;;;10.30;;
45392;SDS011;31129;44.810;10.334;2023-04-03T07:35:54;15.90;;;9.65;;
45392;SDS011;31129;44.810;10.334;2023-04-03T07:38:20;14.30;;;10.88;;
45392;SDS011;31129;44.810;10.334;2023-04-03T07:40:46;15.80;;;10.10;;
45392;SDS011;31129;44.810;10.334;2023-04-03T07:43:12;18.98;;;10.02;;
45392;SDS011;31129;44.810;10.334;2023-04-03T07:45:38;19.10;;;9.55;;
45392;SDS011;31129;44.810;10.334;2023-04-03T07:48:04;15.68;;;10.20;;
45392;SDS011;31129;44.810;10.334;2023-04-03T07:50:29;13.50;;;9.80;;
45392;SDS011;31129;44.810;10.334;2023-04-03T07:52:56;12.65;;;9.45;;
45392;SDS011;31129;44.810;10.334;2023-04-03T07:55:22;13.68;;;9.48;;
45392;SDS011;31129;44.810;10.334;2023-04-03T07:57:48;15.43;;;9.73;;
45392;SDS011;31129;44.810;10.334;2023-04-03T08:00:14;15.68;;;10.07;;
45392;SDS011;31129;44.810;10.334;2023-04-03T08:02:40;12.73;;;10.02;;
45392;SDS011;31129;44.810;10.334;2023-04-03T08:05:05;18.77;;;10.68;;
45392;SDS011;31129;44.810;10.334;2023-04-03T08:07:34;15.15;;;9.40;;
45392;SDS011;31129;44.810;10.334;2023-04-03T08:10:01;12.80;;;9.87;;
45392;SDS011;31129;44.810;10.334;2023-04-03T08:12:26;14.77;;;9.90;;
45392;SDS011;31129;44.810;10.334;2023-04-03T08:14:53;16.25;;;10.30;;
45392;SDS011;31129;44.810;10.334;2023-04-03T08:17:18;15.63;;;8.73;;
45392;SDS011;31129;44.810;10.334;2023-04-03T08:19:44;15.30;;;10.05;;
45392;SDS011;31129;44.810;10.334;2023-04-03T08:22:09;12.27;;;8.73;;
45392;SDS011;31129;44.810;10.334;2023-04-03T08:24:35;16.70;;;10.57;;
45392;SDS011;31129;44.810;10.334;2023-04-03T08:27:00;14.65;;;10.13;;
45392;SDS011;31129;44.810;10.334;2023-04-03T08:29:26;18.23;;;10.45;;
45392;SDS011;31129;44.810;10.334;2023-04-03T08:31:52;15.32;;;10.63;;
45392;SDS011;31129;44.810;10.334;2023-04-03T08:34:18;16.63;;;10.68;;
45392;SDS011;31129;44.810;10.334;2023-04-03T08:36:44;15.63;;;11.60;;
45392;SDS011;31129;44.810;10.334;2023-04-03T08:39:10;13.35;;;9.60;;
45392;SDS011;31129;44.810;10.334;2023-04-03T08:41:37;13.23;;;9.63;;
45392;SDS011;31129;44.810;10.334;2023-04-03T08:46:47;13.70;;;9.23;;
45392;SDS011;31129;44.810;10.334;2023-04-03T08:49:26;15.93;;;9.18;;
45392;SDS011;31129;44.810;10.334;2023-04-03T08:51:56;14.45;;;9.32;;
45392;SDS011;31129;44.810;10.334;2023-04-03T08:54:32;13.68;;;8.93;;
45392;SDS011;31129;44.810;10.334;2023-04-03T08:57:00;13.63;;;8.55;;
45392;SDS011;31129;44.810;10.334;2023-04-03T08:59:29;12.50;;;8.43;;
45392;SDS011;31129;44.810;10.334;2023-04-03T09:01:59;12.10;;;8.57;;
45392;SDS011;31129;44.810;10.334;2023-04-03T09:04:30;12.68;;;8.68;;
45392;SDS011;31129;44.810;10.334;2023-04-03T09:06:59;11.75;;;9.00;;
45392;SDS011;31129;44.810;10.334;2023-04-03T09:09:43;13.30;;;10.07;;
45392;SDS011;31129;44.810;10.334;2023-04-03T09:15:05;10.93;;;8.93;;
45392;SDS011;31129;44.810;10.334;2023-04-03T09:20:13;20.15;;;9.18;;
45392;SDS011;31129;44.810;10.334;2023-04-03T09:22:45;14.60;;;8.85;;
45392;SDS011;31129;44.810;10.334;2023-04-03T09:25:43;12.23;;;9.00;;
45392;SDS011;31129;44.810;10.334;2023-04-03T09:28:02;10.90;;;8.27;;
45392;SDS011;31129;44.810;10.334;2023-04-03T09:30:29;14.98;;;8.00;;
45392;SDS011;31129;44.810;10.334;2023-04-03T09:32:55;11.75;;;8.27;;
45392;SDS011;31129;44.810;10.334;2023-04-03T09:35:26;10.20;;;7.63;;
45392;SDS011;31129;44.810;10.334;2023-04-03T09:37:53;10.02;;;7.95;;
45392;SDS011;31129;44.810;10.334;2023-04-03T09:42:55;12.60;;;6.32;;
45392;SDS011;31129;44.810;10.334;2023-04-03T09:45:26;10.25;;;7.13;;
45392;SDS011;31129;44.810;10.334;2023-04-03T09:50:38;11.07;;;6.75;;
45392;SDS011;31129;44.810;10.334;2023-04-03T09:55:55;7.28;;;4.95;;
45392;SDS011;31129;44.810;10.334;2023-04-03T09:58:23;7.45;;;5.35;;
45392;SDS011;31129;44.810;10.334;2023-04-03T10:00:59;10.73;;;5.85;;
45392;SDS011;31129;44.810;10.334;2023-04-03T10:03:30;13.13;;;6.50;;
45392;SDS011;31129;44.810;10.334;2023-04-03T10:05:59;13.80;;;6.40;;
45392;SDS011;31129;44.810;10.334;2023-04-03T10:08:33;5.13;;;4.63;;
45392;SDS011;31129;44.810;10.334;2023-04-03T10:11:17;4.93;;;3.70;;
45392;SDS011;31129;44.810;10.334;2023-04-03T10:13:51;7.28;;;3.70;;
45392;SDS011;31129;44.810;10.334;2023-04-03T10:19:14;4.53;;;3.53;;
45392;SDS011;31129;44.810;10.334;2023-04-03T10:21:55;6.00;;;3.80;;
45392;SDS011;31129;44.810;10.334;2023-04-03T10:24:41;7.78;;;4.13;;
45392;SDS011;31129;44.810;10.334;2023-04-03T10:30:08;10.40;;;5.45;;
45392;SDS011;31129;44.810;10.334;2023-04-03T10:32:45;4.65;;;3.92;;
45392;SDS011;31129;44.810;10.334;2023-04-03T10:35:41;14.15;;;4.47;;
45392;SDS011;31129;44.810;10.334;2023-04-03T10:41:02;5.07;;;3.58;;
45392;SDS011;31129;44.810;10.334;2023-04-03T10:43:50;6.57;;;3.88;;
45392;SDS011;31129;44.810;10.334;2023-04-03T10:46:28;6.15;;;3.83;;
45392;SDS011;31129;44.810;10.334;2023-04-03T10:54:24;6.82;;;5.05;;
45392;SDS011;31129;44.810;10.334;2023-04-03T10:57:01;7.15;;;4.72;;
45392;SDS011;31129;44.810;10.334;2023-04-03T10:59:40;5.75;;;4.13;;
45392;SDS011;31129;44.810;10.334;2023-04-03T11:02:14;7.05;;;3.78;;
45392;SDS011;31129;44.810;10.334;2023-04-03T11:04:48;10.18;;;3.50;;
45392;SDS011;31129;44.810;10.334;2023-04-03T11:07:22;7.97;;;4.20;;
45392;SDS011;31129;44.810;10.334;2023-04-03T11:09:55;6.88;;;2.80;;
45392;SDS011;31129;44.810;10.334;2023-04-03T11:12:33;3.58;;;2.45;;
45392;SDS011;31129;44.810;10.334;2023-04-03T11:15:05;6.60;;;2.25;;
45392;SDS011;31129;44.810;10.334;2023-04-03T11:17:41;7.72;;;2.08;;
45392;SDS011;31129;44.810;10.334;2023-04-03T11:20:17;3.13;;;2.25;;
45392;SDS011;31129;44.810;10.334;2023-04-03T11:22:53;14.30;;;2.15;;
45392;SDS011;31129;44.810;10.334;2023-04-03T11:25:24;6.15;;;2.40;;
45392;SDS011;31129;44.810;10.334;2023-04-03T11:30:18;5.18;;;2.08;;
45392;SDS011;31129;44.810;10.334;2023-04-03T11:35:47;1.08;;;0.90;;
45392;SDS011;31129;44.810;10.334;2023-04-03T11:38:23;5.15;;;1.45;;
45392;SDS011;31129;44.810;10.334;2023-04-03T11:40:53;2.80;;;1.50;;
45392;SDS011;31129;44.810;10.334;2023-04-03T11:43:30;5.00;;;1.42;;
45392;SDS011;31129;44.810;10.334;2023-04-03T11:46:04;1.60;;;1.08;;
45392;SDS011;31129;44.810;10.334;2023-04-03T11:53:38;3.65;;;1.23;;
45392;SDS011;31129;44.810;10.334;2023-04-03T11:59:49;5.30;;;1.27;;
45392;SDS011;31129;44.810;10.334;2023-04-03T12:01:54;4.78;;;1.50;;
45392;SDS011;31129;44.810;10.334;2023-04-03T12:04:24;6.22;;;1.13;;
45392;SDS011;31129;44.810;10.334;2023-04-03T12:06:53;1.88;;;1.20;;
45392;SDS011;31129;44.810;10.334;2023-04-03T12:09:58;3.10;;;1.23;;
45392;SDS011;31129;44.810;10.334;2023-04-03T12:12:34;4.15;;;1.00;;
45392;SDS011;31129;44.810;10.334;2023-04-03T12:17:51;4.95;;;1.20;;
45392;SDS011;31129;44.810;10.334;2023-04-03T12:23:27;3.78;;;1.10;;
45392;SDS011;31129;44.810;10.334;2023-04-03T12:37:40;3.58;;;1.10;;
45392;SDS011;31129;44.810;10.334;2023-04-03T12:43:22;2.67;;;1.23;;
45392;SDS011;31129;44.810;10.334;2023-04-03T12:46:28;4.47;;;1.10;;
45392;SDS011;31129;44.810;10.334;2023-04-03T12:49:04;2.05;;;1.00;;
45392;SDS011;31129;44.810;10.334;2023-04-03T12:51:46;3.30;;;1.30;;
45392;SDS011;31129;44.810;10.334;2023-04-03T12:54:13;3.03;;;1.02;;
45392;SDS011;31129;44.810;10.334;2023-04-03T12:56:44;3.88;;;1.83;;
45392;SDS011;31129;44.810;10.334;2023-04-03T12:59:18;5.75;;;1.35;;
45392;SDS011;31129;44.810;10.334;2023-04-03T13:02:23;3.55;;;1.25;;
45392;SDS011;31129;44.810;10.334;2023-04-03T13:05:06;10.18;;;1.63;;
45392;SDS011;31129;44.810;10.334;2023-04-03T13:07:37;3.10;;;1.20;;
45392;SDS011;31129;44.810;10.334;2023-04-03T13:12:32;3.53;;;1.60;;
45392;SDS011;31129;44.810;10.334;2023-04-03T13:15:00;4.53;;;1.40;;
45392;SDS011;31129;44.810;10.334;2023-04-03T13:17:29;4.38;;;1.55;;
45392;SDS011;31129;44.810;10.334;2023-04-03T13:19:57;4.28;;;2.10;;
45392;SDS011;31129;44.810;10.334;2023-04-03T13:22:40;6.90;;;2.20;;
45392;SDS011;31129;44.810;10.334;2023-04-03T13:25:13;4.88;;;2.30;;
45392;SDS011;31129;44.810;10.334;2023-04-03T13:27:40;3.67;;;1.93;;
45392;SDS011;31129;44.810;10.334;2023-04-03T13:30:22;8.95;;;1.90;;
45392;SDS011;31129;44.810;10.334;2023-04-03T13:32:52;4.28;;;1.73;;
45392;SDS011;31129;44.810;10.334;2023-04-03T13:35:38;6.18;;;1.70;;
45392;SDS011;31129;44.810;10.334;2023-04-03T13:40:53;8.45;;;1.67;;
45392;SDS011;31129;44.810;10.334;2023-04-03T13:43:22;4.60;;;2.40;;
45392;SDS011;31129;44.810;10.334;2023-04-03T13:48:45;7.43;;;2.30;;
45392;SDS011;31129;44.810;10.334;2023-04-03T13:53:57;6.55;;;2.17;;
45392;SDS011;31129;44.810;10.334;2023-04-03T13:59:05;6.07;;;2.03;;
45392;SDS011;31129;44.810;10.334;2023-04-03T14:04:13;4.35;;;1.80;;
45392;SDS011;31129;44.810;10.334;2023-04-03T14:06:42;4.78;;;2.05;;
45392;SDS011;31129;44.810;10.334;2023-04-03T14:09:08;3.63;;;1.77;;
45392;SDS011;31129;44.810;10.334;2023-04-03T14:11:34;3.28;;;1.70;;
45392;SDS011;31129;44.810;10.334;2023-04-03T14:14:01;8.30;;;2.00;;
45392;SDS011;31129;44.810;10.334;2023-04-03T14:16:32;3.70;;;1.58;;
45392;SDS011;31129;44.810;10.334;2023-04-03T14:19:02;6.38;;;1.65;;
45392;SDS011;31129;44.810;10.334;2023-04-03T14:21:28;3.90;;;1.63;;
45392;SDS011;31129;44.810;10.334;2023-04-03T14:23:54;7.88;;;2.35;;
45392;SDS011;31129;44.810;10.334;2023-04-03T14:26:20;3.75;;;1.95;;
45392;SDS011;31129;44.810;10.334;2023-04-03T14:31:14;5.13;;;2.00;;
45392;SDS011;31129;44.810;10.334;2023-04-03T14:33:41;6.90;;;2.10;;
45392;SDS011;31129;44.810;10.334;2023-04-03T14:36:14;4.07;;;2.25;;
45392;SDS011;31129;44.810;10.334;2023-04-03T14:38:41;3.95;;;1.50;;
45392;SDS011;31129;44.810;10.334;2023-04-03T14:41:07;4.25;;;1.50;;
45392;SDS011;31129;44.810;10.334;2023-04-03T14:43:33;4.13;;;1.65;;
45392;SDS011;31129;44.810;10.334;2023-04-03T14:45:58;3.10;;;1.70;;
45392;SDS011;31129;44.810;10.334;2023-04-03T14:48:24;6.15;;;1.90;;
45392;SDS011;31129;44.810;10.334;2023-04-03T14:50:51;5.28;;;2.22;;
45392;SDS011;31129;44.810;10.334;2023-04-03T14:53:19;8.20;;;2.30;;
45392;SDS011;31129;44.810;10.334;2023-04-03T14:55:49;5.88;;;1.50;;
45392;SDS011;31129;44.810;10.334;2023-04-03T14:58:16;8.93;;;1.83;;
45392;SDS011;31129;44.810;10.334;2023-04-03T15:00:43;5.00;;;1.60;;
45392;SDS011;31129;44.810;10.334;2023-04-03T15:03:42;6.82;;;1.70;;
45392;SDS011;31129;44.810;10.334;2023-04-03T15:06:01;7.80;;;1.55;;
45392;SDS011;31129;44.810;10.334;2023-04-03T15:08:26;7.60;;;1.50;;
45392;SDS011;31129;44.810;10.334;2023-04-03T15:10:55;4.90;;;1.27;;
45392;SDS011;31129;44.810;10.334;2023-04-03T15:13:25;3.97;;;1.25;;
45392;SDS011;31129;44.810;10.334;2023-04-03T15:15:51;5.45;;;1.58;;
45392;SDS011;31129;44.810;10.334;2023-04-03T15:18:19;2.90;;;1.10;;
45392;SDS011;31129;44.810;10.334;2023-04-03T15:20:46;4.57;;;1.30;;
45392;SDS011;31129;44.810;10.334;2023-04-03T15:23:13;2.75;;;0.98;;
45392;SDS011;31129;44.810;10.334;2023-04-03T15:25:44;1.80;;;0.98;;
45392;SDS011;31129;44.810;10.334;2023-04-03T15:28:26;7.15;;;1.17;;
45392;SDS011;31129;44.810;10.334;2023-04-03T15:30:55;6.10;;;1.00;;
45392;SDS011;31129;44.810;10.334;2023-04-03T15:33:21;1.77;;;1.10;;
45392;SDS011;31129;44.810;10.334;2023-04-03T15:35:47;3.70;;;1.20;;
45392;SDS011;31129;44.810;10.334;2023-04-03T15:38:15;4.38;;;1.00;;
45392;SDS011;31129;44.810;10.334;2023-04-03T15:40:41;2.67;;;1.00;;
45392;SDS011;31129;44.810;10.334;2023-04-03T15:43:07;5.90;;;1.10;;
45392;SDS011;31129;44.810;10.334;2023-04-03T15:45:33;3.47;;;1.20;;
45392;SDS011;31129;44.810;10.334;2023-04-03T15:48:01;6.70;;;1.13;;
45392;SDS011;31129;44.810;10.334;2023-04-03T15:50:31;7.50;;;1.35;;
45392;SDS011;31129;44.810;10.334;2023-04-03T15:53:00;7.35;;;1.08;;
45392;SDS011;31129;44.810;10.334;2023-04-03T15:55:30;5.97;;;1.15;;
45392;SDS011;31129;44.810;10.334;2023-04-03T15:57:57;3.38;;;1.00;;
45392;SDS011;31129;44.810;10.334;2023-04-03T16:00:24;4.72;;;1.40;;
45392;SDS011;31129;44.810;10.334;2023-04-03T16:02:52;4.10;;;0.95;;
45392;SDS011;31129;44.810;10.334;2023-04-03T16:05:20;1.30;;;0.93;;
45392;SDS011;31129;44.810;10.334;2023-04-03T16:07:46;3.53;;;1.23;;
45392;SDS011;31129;44.810;10.334;2023-04-03T16:10:12;2.90;;;1.20;;
45392;SDS011;31129;44.810;10.334;2023-04-03T16:15:05;5.53;;;0.90;;
45392;SDS011;31129;44.810;10.334;2023-04-03T16:17:31;5.60;;;1.25;;
45392;SDS011;31129;44.810;10.334;2023-04-03T16:19:58;2.70;;;1.13;;
45392;SDS011;31129;44.810;10.334;2023-04-03T16:22:24;5.72;;;1.20;;
45392;SDS011;31129;44.810;10.334;2023-04-03T16:24:53;3.72;;;0.93;;
45392;SDS011;31129;44.810;10.334;2023-04-03T16:27:19;6.45;;;1.00;;
45392;SDS011;31129;44.810;10.334;2023-04-03T16:29:46;2.10;;;0.93;;
45392;SDS011;31129;44.810;10.334;2023-04-03T16:32:11;7.85;;;1.10;;
45392;SDS011;31129;44.810;10.334;2023-04-03T16:34:38;5.20;;;1.20;;
45392;SDS011;31129;44.810;10.334;2023-04-03T16:37:05;3.45;;;1.00;;
45392;SDS011;31129;44.810;10.334;2023-04-03T16:39:36;1.92;;;1.00;;
45392;SDS011;31129;44.810;10.334;2023-04-03T16:42:01;4.70;;;1.00;;
45392;SDS011;31129;44.810;10.334;2023-04-03T16:44:30;10.18;;;1.17;;
45392;SDS011;31129;44.810;10.334;2023-04-03T16:46:56;4.25;;;1.10;;
45392;SDS011;31129;44.810;10.334;2023-04-03T16:49:21;4.03;;;1.33;;
45392;SDS011;31129;44.810;10.334;2023-04-03T16:51:48;8.50;;;1.10;;
45392;SDS011;31129;44.810;10.334;2023-04-03T16:54:14;6.38;;;1.00;;
45392;SDS011;31129;44.810;10.334;2023-04-03T16:56:39;4.97;;;1.52;;
45392;SDS011;31129;44.810;10.334;2023-04-03T16:59:05;4.55;;;0.98;;
45392;SDS011;31129;44.810;10.334;2023-04-03T17:01:31;2.80;;;1.23;;
45392;SDS011;31129;44.810;10.334;2023-04-03T17:03:56;4.20;;;1.05;;
45392;SDS011;31129;44.810;10.334;2023-04-03T17:06:22;7.97;;;1.10;;
45392;SDS011;31129;44.810;10.334;2023-04-03T17:08:49;9.35;;;1.35;;
45392;SDS011;31129;44.810;10.334;2023-04-03T17:11:25;2.75;;;1.10;;
45392;SDS011;31129;44.810;10.334;2023-04-03T17:13:54;8.38;;;1.40;;
45392;SDS011;31129;44.810;10.334;2023-04-03T17:16:20;6.25;;;1.13;;
45392;SDS011;31129;44.810;10.334;2023-04-03T17:18:45;6.03;;;1.23;;
45392;SDS011;31129;44.810;10.334;2023-04-03T17:21:12;2.60;;;0.90;;
45392;SDS011;31129;44.810;10.334;2023-04-03T17:23:39;3.92;;;1.17;;
45392;SDS011;31129;44.810;10.334;2023-04-03T17:26:07;3.47;;;1.50;;
45392;SDS011;31129;44.810;10.334;2023-04-03T17:28:33;7.30;;;1.17;;
45392;SDS011;31129;44.810;10.334;2023-04-03T17:30:59;4.30;;;1.50;;
45392;SDS011;31129;44.810;10.334;2023-04-03T17:33:26;7.22;;;1.10;;
45392;SDS011;31129;44.810;10.334;2023-04-03T17:35:55;7.03;;;1.08;;
45392;SDS011;31129;44.810;10.334;2023-04-03T17:38:21;3.83;;;1.50;;
45392;SDS011;31129;44.810;10.334;2023-04-03T17:40:47;4.57;;;1.10;;
45392;SDS011;31129;44.810;10.334;2023-04-03T17:43:12;4.88;;;1.10;;
45392;SDS011;31129;44.810;10.334;2023-04-03T17:45:38;3.97;;;1.17;;
45392;SDS011;31129;44.810;10.334;2023-04-03T17:48:04;4.78;;;1.63;;
45392;SDS011;31129;44.810;10.334;2023-04-03T17:50:30;3.85;;;1.20;;
45392;SDS011;31129;44.810;10.334;2023-04-03T17:52:55;3.80;;;1.48;;
45392;SDS011;31129;44.810;10.334;2023-04-03T17:55:21;5.78;;;1.15;;
45392;SDS011;31129;44.810;10.334;2023-04-03T17:57:47;6.82;;;1.50;;
45392;SDS011;31129;44.810;10.334;2023-04-03T18:00:12;8.82;;;1.40;;
45392;SDS011;31129;44.810;10.334;2023-04-03T18:02:40;2.83;;;1.30;;
45392;SDS011;31129;44.810;10.334;2023-04-03T18:05:06;3.17;;;1.38;;
45392;SDS011;31129;44.810;10.334;2023-04-03T18:07:34;4.82;;;1.77;;
45392;SDS011;31129;44.810;10.334;2023-04-03T18:10:00;9.43;;;1.48;;
45392;SDS011;31129;44.810;10.334;2023-04-03T18:12:33;6.35;;;1.67;;
45392;SDS011;31129;44.810;10.334;2023-04-03T18:15:00;5.10;;;1.92;;
45392;SDS011;31129;44.810;10.334;2023-04-03T18:17:28;7.40;;;1.38;;
45392;SDS011;31129;44.810;10.334;2023-04-03T18:19:54;3.40;;;1.65;;
45392;SDS011;31129;44.810;10.334;2023-04-03T18:22:20;6.00;;;1.65;;
45392;SDS011;31129;44.810;10.334;2023-04-03T18:24:47;5.50;;;1.60;;
45392;SDS011;31129;44.810;10.334;2023-04-03T18:27:15;4.43;;;1.60;;
45392;SDS011;31129;44.810;10.334;2023-04-03T18:29:49;3.83;;;1.58;;
45392;SDS011;31129;44.810;10.334;2023-04-03T18:32:18;6.13;;;2.00;;
45392;SDS011;31129;44.810;10.334;2023-04-03T18:34:45;9.88;;;2.05;;
45392;SDS011;31129;44.810;10.334;2023-04-03T18:37:10;4.28;;;1.95;;
45392;SDS011;31129;44.810;10.334;2023-04-03T18:39:36;3.03;;;1.60;;
45392;SDS011;31129;44.810;10.334;2023-04-03T18:42:05;6.60;;;1.77;;
45392;SDS011;31129;44.810;10.334;2023-04-03T18:44:33;6.45;;;1.40;;
45392;SDS011;31129;44.810;10.334;2023-04-03T18:47:01;5.13;;;1.80;;
45392;SDS011;31129;44.810;10.334;2023-04-03T18:49:27;4.25;;;1.90;;
45392;SDS011;31129;44.810;10.334;2023-04-03T18:54:20;10.57;;;2.00;;
45392;SDS011;31129;44.810;10.334;2023-04-03T18:56:45;4.35;;;1.90;;
45392;SDS011;31129;44.810;10.334;2023-04-03T18:59:11;5.53;;;1.75;;
45392;SDS011;31129;44.810;10.334;2023-04-03T19:01:38;6.75;;;1.80;;
45392;SDS011;31129;44.810;10.334;2023-04-03T19:04:04;15.05;;;1.70;;
45392;SDS011;31129;44.810;10.334;2023-04-03T19:06:34;8.35;;;2.30;;
45392;SDS011;31129;44.810;10.334;2023-04-03T19:09:01;4.38;;;2.20;;
45392;SDS011;31129;44.810;10.334;2023-04-03T19:11:30;7.30;;;2.63;;
45392;SDS011;31129;44.810;10.334;2023-04-03T19:13:56;5.97;;;2.35;;
45392;SDS011;31129;44.810;10.334;2023-04-03T19:16:23;6.83;;;2.00;;
45392;SDS011;31129;44.810;10.334;2023-04-03T19:18:48;5.95;;;2.03;;
45392;SDS011;31129;44.810;10.334;2023-04-03T19:21:14;4.85;;;1.92;;
45392;SDS011;31129;44.810;10.334;2023-04-03T19:23:40;4.20;;;1.80;;
45392;SDS011;31129;44.810;10.334;2023-04-03T19:28:35;3.60;;;2.15;;
45392;SDS011;31129;44.810;10.334;2023-04-03T19:31:02;7.50;;;2.00;;
45392;SDS011;31129;44.810;10.334;2023-04-03T19:33:35;3.92;;;1.73;;
45392;SDS011;31129;44.810;10.334;2023-04-03T19:36:03;6.63;;;1.83;;
45392;SDS011;31129;44.810;10.334;2023-04-03T19:38:29;3.65;;;2.50;;
45392;SDS011;31129;44.810;10.334;2023-04-03T19:40:55;7.00;;;2.67;;
45392;SDS011;31129;44.810;10.334;2023-04-03T19:43:20;5.13;;;2.33;;
45392;SDS011;31129;44.810;10.334;2023-04-03T19:45:49;4.63;;;2.17;;
45392;SDS011;31129;44.810;10.334;2023-04-03T19:48:15;5.45;;;2.17;;
45392;SDS011;31129;44.810;10.334;2023-04-03T19:50:41;6.10;;;1.85;;
45392;SDS011;31129;44.810;10.334;2023-04-03T19:53:06;4.22;;;2.40;;
45392;SDS011;31129;44.810;10.334;2023-04-03T19:55:38;6.22;;;2.42;;
45392;SDS011;31129;44.810;10.334;2023-04-03T19:58:04;8.23;;;2.15;;
45392;SDS011;31129;44.810;10.334;2023-04-03T20:00:30;3.35;;;1.77;;
45392;SDS011;31129;44.810;10.334;2023-04-03T20:02:56;9.80;;;1.90;;
45392;SDS011;31129;44.810;10.334;2023-04-03T20:05:22;6.25;;;2.20;;
45392;SDS011;31129;44.810;10.334;2023-04-03T20:07:48;8.73;;;2.10;;
45392;SDS011;31129;44.810;10.334;2023-04-03T20:10:14;12.00;;;2.25;;
45392;SDS011;31129;44.810;10.334;2023-04-03T20:12:40;5.07;;;1.63;;
45392;SDS011;31129;44.810;10.334;2023-04-03T20:15:06;8.57;;;2.00;;
45392;SDS011;31129;44.810;10.334;2023-04-03T20:17:33;3.95;;;1.70;;
45392;SDS011;31129;44.810;10.334;2023-04-03T20:19:59;6.45;;;2.25;;
45392;SDS011;31129;44.810;10.334;2023-04-03T20:22:27;8.20;;;2.55;;
45392;SDS011;31129;44.810;10.334;2023-04-03T20:24:53;4.90;;;2.10;;
45392;SDS011;31129;44.810;10.334;2023-04-03T20:27:18;4.05;;;1.90;;
45392;SDS011;31129;44.810;10.334;2023-04-03T20:29:44;8.73;;;1.85;;
45392;SDS011;31129;44.810;10.334;2023-04-03T20:32:09;6.97;;;2.20;;
45392;SDS011;31129;44.810;10.334;2023-04-03T20:34:36;5.07;;;2.10;;
45392;SDS011;31129;44.810;10.334;2023-04-03T20:37:02;7.53;;;2.35;;
45392;SDS011;31129;44.810;10.334;2023-04-03T20:39:28;4.22;;;2.00;;
45392;SDS011;31129;44.810;10.334;2023-04-03T20:41:54;5.57;;;2.00;;
45392;SDS011;31129;44.810;10.334;2023-04-03T20:44:20;7.60;;;2.40;;
45392;SDS011;31129;44.810;10.334;2023-04-03T20:46:46;6.50;;;2.33;;
45392;SDS011;31129;44.810;10.334;2023-04-03T20:49:12;6.63;;;2.20;;
45392;SDS011;31129;44.810;10.334;2023-04-03T20:51:38;9.38;;;2.65;;
45392;SDS011;31129;44.810;10.334;2023-04-03T20:54:03;4.65;;;2.20;;
45392;SDS011;31129;44.810;10.334;2023-04-03T20:56:32;3.42;;;2.45;;
45392;SDS011;31129;44.810;10.334;2023-04-03T20:58:58;5.38;;;2.50;;
45392;SDS011;31129;44.810;10.334;2023-04-03T21:01:25;8.27;;;2.15;;
45392;SDS011;31129;44.810;10.334;2023-04-03T21:03:53;6.75;;;2.15;;
45392;SDS011;31129;44.810;10.334;2023-04-03T21:21:01;9.07;;;2.05;;
45392;SDS011;31129;44.810;10.334;2023-04-03T21:23:27;6.18;;;2.67;;
45392;SDS011;31129;44.810;10.334;2023-04-03T21:25:54;3.95;;;2.10;;
45392;SDS011;31129;44.810;10.334;2023-04-03T21:28:23;9.50;;;2.38;;